Estación de Mayorquina

Ultimos registro cada 15 minutos 47
Estación Fecha / Hora Temperatura Humedad Lluvia Velocidad Dirección Radiación Presion
47 Mayorquina 07-05-2026 11:30 20,2 64 0 1,8 254 585 1016,8
46 Mayorquina 07-05-2026 11:15 20,7 63 0 1,8 254 568 1016,8
45 Mayorquina 07-05-2026 11:00 20,9 62 0 1,3 237 547 1016,9
44 Mayorquina 07-05-2026 10:45 20,5 63 0 0,9 244 522 1017,1
43 Mayorquina 07-05-2026 10:30 19,3 68 0 1,3 70 496 1017,2
42 Mayorquina 07-05-2026 10:15 17,9 72 0 1,8 86 469 1017,3
41 Mayorquina 07-05-2026 10:00 16,7 83 0 1,3 54 431 1017,5
40 Mayorquina 07-05-2026 09:45 15,3 91 0 3,6 59 399 1017,5
39 Mayorquina 07-05-2026 09:30 14,1 95 0 0,9 37 359 1017,6
38 Mayorquina 07-05-2026 09:15 12,9 95 0 0 58 320 1017,5
37 Mayorquina 07-05-2026 09:00 12,2 95 0 0,9 60 218 1017,4
36 Mayorquina 07-05-2026 08:45 11,8 94 0 0,4 110 111 1017,5
35 Mayorquina 07-05-2026 08:30 11,8 94 0 0,9 43 100 1017,6
34 Mayorquina 07-05-2026 08:15 11,6 94 0 0 26 63 1017,6
33 Mayorquina 07-05-2026 08:00 11,4 94 0 0 250 28 1017,6
32 Mayorquina 07-05-2026 07:45 11,4 94 0 0 250 16 1017,5
31 Mayorquina 07-05-2026 07:30 11,6 94 0 0 248 7 1017,4
30 Mayorquina 07-05-2026 07:15 11,8 94 0 0 252 0 1017,2
29 Mayorquina 07-05-2026 07:00 11,8 94 0 0 222 0 1017
28 Mayorquina 07-05-2026 06:45 11,7 94 0 0 135 0 1016,6
27 Mayorquina 07-05-2026 06:30 11,6 94 0 0 168 0 1016,7
26 Mayorquina 07-05-2026 06:15 11,2 94 0 0 124 0 1016,5
25 Mayorquina 07-05-2026 06:00 10,9 92 0 0 91 0 1016,4
24 Mayorquina 07-05-2026 05:45 11,4 93 0 1,3 81 0 1016,1
23 Mayorquina 07-05-2026 05:30 11,6 93 0 1,3 66 0 1016,2
22 Mayorquina 07-05-2026 05:15 11,8 93 0 0,4 88 0 1016,1
21 Mayorquina 07-05-2026 05:00 12,1 93 0 3,1 94 0 1016,2
20 Mayorquina 07-05-2026 04:45 12,2 93 0 1,8 59 0 1016,2
19 Mayorquina 07-05-2026 04:30 12,2 92 0 1,3 74 0 1016,3
18 Mayorquina 07-05-2026 04:15 12,4 92 0 0,9 55 0 1016,3
17 Mayorquina 07-05-2026 04:00 12,6 92 0 1,3 99 0 1016,3
16 Mayorquina 07-05-2026 03:45 12,8 92 0 1,8 74 0 1016,3
15 Mayorquina 07-05-2026 03:30 13,2 92 0 1,3 95 0 1016,6
14 Mayorquina 07-05-2026 03:15 13,2 92 0 1,3 91 0 1016,7
13 Mayorquina 07-05-2026 03:00 13,3 92 0 0 60 0 1016,9
12 Mayorquina 07-05-2026 02:45 13,3 92 0 0 73 0 1016,9
11 Mayorquina 07-05-2026 02:30 13,4 92 0 0 27 0 1017
10 Mayorquina 07-05-2026 02:15 13,4 92 0 0 318 0 1017
9 Mayorquina 07-05-2026 02:00 13,4 92 0 0 304 0 1017,1
8 Mayorquina 07-05-2026 01:45 13,4 92 0 0 304 0 1017,2
7 Mayorquina 07-05-2026 01:30 13,4 92 0 0 304 0 1017,1
6 Mayorquina 07-05-2026 01:15 13,4 92 0 0 304 0 1017,2
5 Mayorquina 07-05-2026 01:00 13,2 92 0 0 283 0 1017,2
4 Mayorquina 07-05-2026 00:45 13,3 92 0 0 283 0 1017,1
3 Mayorquina 07-05-2026 00:30 13,4 92 0 0 283 0 1017,2
2 Mayorquina 07-05-2026 00:15 13,6 92 0 0 257 0 1017,3
1 Mayorquina 07-05-2026 00:00 13,6 92 0 0 256 0 1017,3